Time;durP1;ratioP1;P1;durP2;ratioP2;P2;SDS_P1;SDS_P2;PMS_P1;PMS_P2;Temp;Humidity;BMP_temperature;BMP_pressure;BME280_temperature;BME280_humidity;BME280_pressure;Samples;Min_cycle;Max_cycle;Signal;HPM_P1;HPM_P2
2022/06/25 00:00:51;;;;;;;2.60;2.50;;;;;;;;;;4987709;28;20026;-62
2022/06/25 00:03:17;;;;;;;5.30;2.90;;;;;;;;;;4990414;28;20049;-62
2022/06/25 00:05:42;;;;;;;2.80;2.65;;;;;;;;;;4963813;28;20535;-63
2022/06/25 00:08:07;;;;;;;3.47;3.10;;;;;;;;;;4966751;28;20055;-62
2022/06/25 00:10:32;;;;;;;3.10;2.67;;;;;;;;;;4969373;28;20038;-63
2022/06/25 00:12:58;;;;;;;3.03;2.70;;;;;;;;;;4970352;28;20039;-62
2022/06/25 00:15:23;;;;;;;3.13;2.40;;;;;;;;;;4968371;28;20426;-64
2022/06/25 00:17:48;;;;;;;3.72;2.95;;;;;;;;;;4964923;28;20578;-62
2022/06/25 00:20:14;;;;;;;3.35;2.65;;;;;;;;;;4964440;28;20034;-62
2022/06/25 00:22:39;;;;;;;3.63;2.90;;;;;;;;;;4968036;28;20723;-62
2022/06/25 00:25:04;;;;;;;2.60;2.40;;;;;;;;;;4970521;28;20026;-63
2022/06/25 00:27:29;;;;;;;3.05;2.75;;;;;;;;;;4966535;28;20486;-62
2022/06/25 00:29:55;;;;;;;4.93;3.28;;;;;;;;;;4970302;28;20041;-63
2022/06/25 00:32:20;;;;;;;3.20;2.40;;;;;;;;;;4970422;28;20066;-62
2022/06/25 00:34:45;;;;;;;2.47;2.30;;;;;;;;;;4971542;28;20454;-61
2022/06/25 00:37:11;;;;;;;2.33;2.13;;;;;;;;;;4969461;28;20065;-62
2022/06/25 00:39:36;;;;;;;2.10;1.90;;;;;;;;;;4968076;28;20052;-62
2022/06/25 00:42:07;;;;;;;2.28;2.17;;;;;;;;;;4970534;28;20809;-62
2022/06/25 00:44:32;;;;;;;2.30;2.15;;;;;;;;;;4967697;28;20034;-62
2022/06/25 00:46:58;;;;;;;2.50;2.40;;;;;;;;;;4968299;28;20231;-63
2022/06/25 00:49:23;;;;;;;2.42;2.33;;;;;;;;;;4973014;28;20030;-62
2022/06/25 00:51:49;;;;;;;2.90;2.38;;;;;;;;;;4975117;28;20042;-64
2022/06/25 00:54:16;;;;;;;2.50;2.30;;;;;;;;;;4972248;28;20038;-62
2022/06/25 00:56:44;;;;;;;2.65;2.45;;;;;;;;;;4970268;28;20081;-62
2022/06/25 00:59:10;;;;;;;7.40;2.45;;;;;;;;;;4973228;28;20428;-62
2022/06/25 01:01:35;;;;;;;2.40;2.22;;;;;;;;;;4975217;28;20026;-62
2022/06/25 01:04:01;;;;;;;3.75;1.92;;;;;;;;;;4970446;28;20084;-61
2022/06/25 01:06:28;;;;;;;4.00;1.95;;;;;;;;;;4970156;28;20492;-64
2022/06/25 01:08:53;;;;;;;2.15;1.70;;;;;;;;;;4986599;28;20508;-63
2022/06/25 01:11:19;;;;;;;1.50;1.50;;;;;;;;;;4976690;28;20165;-63
2022/06/25 01:13:44;;;;;;;1.80;1.70;;;;;;;;;;4990004;28;20029;-62
2022/06/25 01:16:09;;;;;;;1.50;1.30;;;;;;;;;;4987511;28;20026;-63
2022/06/25 01:18:34;;;;;;;1.30;1.30;;;;;;;;;;4992503;28;20373;-62
2022/06/25 01:21:00;;;;;;;1.40;1.40;;;;;;;;;;4993407;28;20026;-63
2022/06/25 01:23:25;;;;;;;1.05;1.05;;;;;;;;;;4992225;28;20125;-61
2022/06/25 01:25:51;;;;;;;2.88;1.35;;;;;;;;;;4990804;28;20037;-63
2022/06/25 01:28:16;;;;;;;2.13;1.02;;;;;;;;;;4994129;28;20264;-63
2022/06/25 01:30:41;;;;;;;1.35;1.20;;;;;;;;;;4991529;28;20541;-63
2022/06/25 01:33:07;;;;;;;1.20;1.20;;;;;;;;;;4989787;28;20037;-62
2022/06/25 01:35:32;;;;;;;0.98;0.95;;;;;;;;;;4990786;28;20476;-62
2022/06/25 01:37:58;;;;;;;1.27;1.27;;;;;;;;;;4989425;28;20022;-63
2022/06/25 01:40:23;;;;;;;1.10;1.10;;;;;;;;;;4989254;28;20149;-63
2022/06/25 01:43:00;;;;;;;1.10;1.10;;;;;;;;;;4991153;28;20022;-63
2022/06/25 01:45:30;;;;;;;1.23;1.05;;;;;;;;;;4992530;28;20023;-62
2022/06/25 01:47:55;;;;;;;0.95;0.95;;;;;;;;;;4992644;28;20036;-62
2022/06/25 01:50:20;;;;;;;1.27;1.17;;;;;;;;;;4988115;28;20022;-63
2022/06/25 01:52:46;;;;;;;1.30;1.30;;;;;;;;;;4989127;28;20041;-62
2022/06/25 01:55:12;;;;;;;1.10;1.00;;;;;;;;;;4988963;28;20026;-62
2022/06/25 01:57:37;;;;;;;1.00;1.00;;;;;;;;;;4990907;28;20477;-64
2022/06/25 02:00:07;;;;;;;1.88;0.90;;;;;;;;;;4990964;28;20128;-63
2022/06/25 02:02:32;;;;;;;1.02;1.00;;;;;;;;;;4988267;28;20031;-63
2022/06/25 02:04:57;;;;;;;1.00;1.00;;;;;;;;;;4989047;28;20745;-63
2022/06/25 02:07:23;;;;;;;3.70;0.95;;;;;;;;;;4989065;28;20483;-63
2022/06/25 02:09:48;;;;;;;0.90;0.90;;;;;;;;;;4989859;28;20104;-62
2022/06/25 02:12:13;;;;;;;1.02;1.00;;;;;;;;;;4989593;28;20040;-63
2022/06/25 02:14:38;;;;;;;2.88;0.93;;;;;;;;;;4990360;28;20026;-63
2022/06/25 02:17:04;;;;;;;1.13;1.13;;;;;;;;;;4985168;28;20024;-63
2022/06/25 02:19:29;;;;;;;0.75;0.75;;;;;;;;;;4987865;28;20034;-62
2022/06/25 02:21:54;;;;;;;0.75;0.75;;;;;;;;;;4991201;28;20018;-63
2022/06/25 02:24:20;;;;;;;0.85;0.85;;;;;;;;;;4990348;28;20083;-63
2022/06/25 02:26:45;;;;;;;1.17;1.08;;;;;;;;;;4988096;28;20018;-63
2022/06/25 02:29:10;;;;;;;0.80;0.80;;;;;;;;;;4990369;28;20026;-62
2022/06/25 02:31:35;;;;;;;0.80;0.80;;;;;;;;;;4988551;28;20039;-63
2022/06/25 02:34:01;;;;;;;0.80;0.80;;;;;;;;;;4989873;28;20484;-63
2022/06/25 02:36:26;;;;;;;2.25;0.80;;;;;;;;;;4986628;28;20212;-63
2022/06/25 02:38:51;;;;;;;0.98;0.98;;;;;;;;;;4988832;28;20041;-62
2022/06/25 02:41:16;;;;;;;1.13;1.13;;;;;;;;;;4992733;28;20064;-62
2022/06/25 02:43:42;;;;;;;1.30;0.98;;;;;;;;;;4991302;28;20424;-65
2022/06/25 02:46:07;;;;;;;0.65;0.65;;;;;;;;;;4985260;28;20029;-64
2022/06/25 02:48:33;;;;;;;2.60;1.10;;;;;;;;;;4986706;28;20034;-61
2022/06/25 02:50:58;;;;;;;1.42;0.90;;;;;;;;;;4989518;28;20028;-63
2022/06/25 02:53:23;;;;;;;1.05;0.82;;;;;;;;;;4990129;28;20030;-63
2022/06/25 03:01:17;;;;;;;0.85;0.82;;;;;;;;;;4986708;28;20100;-63
2022/06/25 03:03:42;;;;;;;3.60;1.20;;;;;;;;;;4987546;28;20105;-63
2022/06/25 03:06:07;;;;;;;1.50;1.00;;;;;;;;;;4994697;28;20062;-63
2022/06/25 03:08:33;;;;;;;0.73;0.73;;;;;;;;;;4992245;28;20080;-63
2022/06/25 03:10:58;;;;;;;1.48;1.00;;;;;;;;;;4988095;28;20439;-62
2022/06/25 03:13:23;;;;;;;1.48;0.90;;;;;;;;;;4990373;28;20157;-62
2022/06/25 03:15:48;;;;;;;0.77;0.77;;;;;;;;;;4985021;28;20045;-61
2022/06/25 03:18:14;;;;;;;0.70;0.70;;;;;;;;;;4987467;28;20025;-61
2022/06/25 03:20:39;;;;;;;0.82;0.82;;;;;;;;;;4988467;28;20030;-61
2022/06/25 03:23:04;;;;;;;0.95;0.95;;;;;;;;;;4987155;28;20091;-63
2022/06/25 03:25:30;;;;;;;0.70;0.70;;;;;;;;;;4990354;28;20030;-62
2022/06/25 03:27:55;;;;;;;0.80;0.80;;;;;;;;;;4971512;28;20483;-63
2022/06/25 03:30:21;;;;;;;1.20;0.80;;;;;;;;;;4984929;28;20029;-62
2022/06/25 03:32:46;;;;;;;0.80;0.80;;;;;;;;;;4990805;28;20036;-62
2022/06/25 03:35:12;;;;;;;0.90;0.90;;;;;;;;;;4990868;28;20478;-63
2022/06/25 03:37:37;;;;;;;0.70;0.70;;;;;;;;;;4990397;28;20034;-63
2022/06/25 03:40:02;;;;;;;0.70;0.70;;;;;;;;;;4988089;28;20436;-63
2022/06/25 03:42:28;;;;;;;0.70;0.70;;;;;;;;;;4991440;28;20120;-63
2022/06/25 03:44:53;;;;;;;0.95;0.95;;;;;;;;;;4988063;28;20034;-62
2022/06/25 03:47:18;;;;;;;0.60;0.60;;;;;;;;;;4987844;28;20452;-62
2022/06/25 03:49:43;;;;;;;0.82;0.75;;;;;;;;;;4990375;28;20384;-62
2022/06/25 03:52:09;;;;;;;1.17;1.00;;;;;;;;;;4989657;28;20042;-62
2022/06/25 03:54:35;;;;;;;0.60;0.60;;;;;;;;;;4990760;28;20040;-64
2022/06/25 03:57:01;;;;;;;0.60;0.60;;;;;;;;;;4988662;28;20526;-63
2022/06/25 03:59:26;;;;;;;0.75;0.75;;;;;;;;;;4986026;28;20026;-62
2022/06/25 04:01:51;;;;;;;0.88;0.88;;;;;;;;;;4984809;28;20030;-63
2022/06/25 04:04:16;;;;;;;0.70;0.70;;;;;;;;;;4991363;28;20562;-62
2022/06/25 04:06:42;;;;;;;1.95;0.70;;;;;;;;;;4991325;28;20032;-62
2022/06/25 04:09:07;;;;;;;0.80;0.80;;;;;;;;;;4986844;28;20790;-62
2022/06/25 04:11:32;;;;;;;0.88;0.88;;;;;;;;;;4989905;28;20308;-63
2022/06/25 04:13:57;;;;;;;0.80;0.80;;;;;;;;;;4987072;28;20124;-62
2022/06/25 04:16:23;;;;;;;0.70;0.70;;;;;;;;;;4983768;28;20084;-61
2022/06/25 04:18:48;;;;;;;1.60;0.80;;;;;;;;;;4983365;28;20018;-62
2022/06/25 04:21:14;;;;;;;3.40;0.90;;;;;;;;;;4984440;28;20123;-62
2022/06/25 04:23:39;;;;;;;1.15;0.75;;;;;;;;;;4987254;28;20136;-61
2022/06/25 04:26:04;;;;;;;0.82;0.82;;;;;;;;;;4987506;28;20082;-62
2022/06/25 04:31:14;;;;;;;0.63;0.63;;;;;;;;;;4986983;28;20048;-61
2022/06/25 04:33:39;;;;;;;0.80;0.80;;;;;;;;;;4964050;28;20141;-61
2022/06/25 04:36:05;;;;;;;1.45;0.80;;;;;;;;;;4984584;28;20422;-61
2022/06/25 04:38:30;;;;;;;0.77;0.77;;;;;;;;;;4985021;28;20034;-61
2022/06/25 04:40:55;;;;;;;1.00;0.75;;;;;;;;;;4987637;28;20394;-62
2022/06/25 04:43:21;;;;;;;0.73;0.70;;;;;;;;;;4987436;28;20057;-62
2022/06/25 04:45:46;;;;;;;0.70;0.70;;;;;;;;;;4986970;28;20130;-61
2022/06/25 04:48:11;;;;;;;1.45;1.05;;;;;;;;;;4985255;28;20080;-62
2022/06/25 04:50:37;;;;;;;1.00;1.00;;;;;;;;;;4983356;28;20489;-61
2022/06/25 04:53:02;;;;;;;1.10;0.80;;;;;;;;;;4984351;28;20429;-62
2022/06/25 04:55:27;;;;;;;0.88;0.88;;;;;;;;;;4985626;28;20384;-62
2022/06/25 04:57:52;;;;;;;1.15;0.85;;;;;;;;;;4985820;28;20410;-62
2022/06/25 05:00:18;;;;;;;2.50;1.08;;;;;;;;;;4989723;28;20583;-62
2022/06/25 05:02:43;;;;;;;1.50;1.10;;;;;;;;;;4985659;28;20026;-61
2022/06/25 05:05:08;;;;;;;0.77;0.77;;;;;;;;;;4985373;28;20026;-61
2022/06/25 05:07:34;;;;;;;1.95;0.88;;;;;;;;;;4985826;28;20686;-61
2022/06/25 05:09:59;;;;;;;1.00;0.90;;;;;;;;;;4991432;28;20031;-61
2022/06/25 05:15:08;;;;;;;0.75;0.73;;;;;;;;;;4984159;28;20069;-61
2022/06/25 05:17:34;;;;;;;1.02;0.90;;;;;;;;;;4985706;28;20069;-61
2022/06/25 05:19:59;;;;;;;1.70;0.90;;;;;;;;;;4982498;28;20039;-61
2022/06/25 05:22:24;;;;;;;0.80;0.70;;;;;;;;;;4984573;28;20460;-62
2022/06/25 05:24:50;;;;;;;0.80;0.80;;;;;;;;;;4962573;28;20492;-61
2022/06/25 05:27:15;;;;;;;0.82;0.82;;;;;;;;;;4988202;28;20366;-61
2022/06/25 05:29:40;;;;;;;2.35;0.80;;;;;;;;;;4985726;28;20026;-61
2022/06/25 05:32:06;;;;;;;1.00;1.00;;;;;;;;;;4986481;28;20027;-61
2022/06/25 05:34:31;;;;;;;0.70;0.70;;;;;;;;;;4987605;28;20068;-62
2022/06/25 05:36:56;;;;;;;0.70;0.70;;;;;;;;;;4994781;28;20030;-61
2022/06/25 05:39:21;;;;;;;0.70;0.70;;;;;;;;;;4990071;28;20057;-62
2022/06/25 05:41:46;;;;;;;0.80;0.80;;;;;;;;;;4989840;28;20116;-61
2022/06/25 05:44:12;;;;;;;2.92;1.00;;;;;;;;;;4989159;28;20022;-61
2022/06/25 05:46:37;;;;;;;0.73;0.73;;;;;;;;;;4991811;28;20439;-62
2022/06/25 05:49:03;;;;;;;0.80;0.80;;;;;;;;;;4990428;28;20037;-62
2022/06/25 05:51:28;;;;;;;1.10;0.60;;;;;;;;;;4989100;28;20615;-62
2022/06/25 05:53:53;;;;;;;0.82;0.77;;;;;;;;;;4988494;28;20368;-62
2022/06/25 05:56:18;;;;;;;0.70;0.70;;;;;;;;;;4985974;28;20553;-63
2022/06/25 05:58:44;;;;;;;0.60;0.60;;;;;;;;;;4987670;28;20034;-62
2022/06/25 06:01:09;;;;;;;0.70;0.70;;;;;;;;;;4987104;28;20030;-62
2022/06/25 06:03:34;;;;;;;0.75;0.75;;;;;;;;;;4985132;28;20391;-62
2022/06/25 06:05:59;;;;;;;0.80;0.80;;;;;;;;;;4986509;28;20322;-62
2022/06/25 06:08:25;;;;;;;0.98;0.75;;;;;;;;;;4986192;28;20046;-63
2022/06/25 06:10:50;;;;;;;0.70;0.70;;;;;;;;;;4988510;28;20513;-62
2022/06/25 06:13:15;;;;;;;0.90;0.90;;;;;;;;;;4989732;28;20116;-63
2022/06/25 06:15:40;;;;;;;0.95;0.95;;;;;;;;;;4988297;28;20661;-63
2022/06/25 06:18:06;;;;;;;0.70;0.70;;;;;;;;;;4987973;28;20468;-64
2022/06/25 06:20:31;;;;;;;0.85;0.85;;;;;;;;;;4991233;28;20023;-63
2022/06/25 06:22:56;;;;;;;0.82;0.82;;;;;;;;;;4991731;28;20477;-63
2022/06/25 06:25:22;;;;;;;0.98;0.98;;;;;;;;;;4990785;28;20018;-63
2022/06/25 06:27:47;;;;;;;0.80;0.80;;;;;;;;;;4989105;28;20026;-63
2022/06/25 06:30:13;;;;;;;0.90;0.90;;;;;;;;;;4988683;28;20023;-64
2022/06/25 06:32:38;;;;;;;0.70;0.70;;;;;;;;;;4989700;28;20074;-63
2022/06/25 06:35:03;;;;;;;0.80;0.80;;;;;;;;;;4989680;28;20113;-63
2022/06/25 06:37:29;;;;;;;1.00;1.00;;;;;;;;;;4986492;28;20029;-63
2022/06/25 06:39:54;;;;;;;0.80;0.80;;;;;;;;;;4988333;28;20419;-62
2022/06/25 06:42:19;;;;;;;1.05;1.05;;;;;;;;;;4987545;28;20515;-61
2022/06/25 06:44:44;;;;;;;1.00;1.00;;;;;;;;;;4992313;28;20464;-62
2022/06/25 06:47:09;;;;;;;0.95;0.95;;;;;;;;;;4992033;28;20025;-61
2022/06/25 06:49:35;;;;;;;1.10;1.10;;;;;;;;;;4986574;28;20364;-61
2022/06/25 06:52:00;;;;;;;1.00;1.00;;;;;;;;;;4989500;28;20129;-62
2022/06/25 06:54:25;;;;;;;0.90;0.90;;;;;;;;;;4989358;28;20146;-62
2022/06/25 06:56:51;;;;;;;1.20;1.10;;;;;;;;;;4990622;28;20694;-62
2022/06/25 06:59:16;;;;;;;0.73;0.73;;;;;;;;;;4987145;28;20553;-61
2022/06/25 07:01:41;;;;;;;1.00;1.00;;;;;;;;;;4987269;28;20072;-61
2022/06/25 07:04:06;;;;;;;1.10;1.10;;;;;;;;;;4989348;28;20490;-61
2022/06/25 07:06:32;;;;;;;1.50;1.00;;;;;;;;;;4988448;28;20330;-61
2022/06/25 07:08:57;;;;;;;1.10;1.10;;;;;;;;;;4986567;28;20189;-61
2022/06/25 07:11:28;;;;;;;1.25;1.15;;;;;;;;;;4990745;28;20023;-61
2022/06/25 07:13:53;;;;;;;1.00;1.00;;;;;;;;;;4990355;28;20044;-61
2022/06/25 07:16:19;;;;;;;1.17;1.17;;;;;;;;;;4986693;28;20022;-61
2022/06/25 07:18:44;;;;;;;1.80;1.17;;;;;;;;;;4988844;28;20527;-62
2022/06/25 07:21:09;;;;;;;1.77;1.10;;;;;;;;;;4991267;28;20040;-62
2022/06/25 07:23:34;;;;;;;1.38;1.27;;;;;;;;;;4985981;28;20122;-62
2022/06/25 07:26:00;;;;;;;1.10;1.10;;;;;;;;;;4988597;28;20542;-61
2022/06/25 07:28:25;;;;;;;1.33;1.33;;;;;;;;;;4989142;28;20558;-61
2022/06/25 07:30:50;;;;;;;1.70;1.60;;;;;;;;;;4991045;28;20516;-61
2022/06/25 07:33:16;;;;;;;1.30;1.20;;;;;;;;;;4987391;28;20026;-61
2022/06/25 07:35:41;;;;;;;1.10;1.10;;;;;;;;;;4986146;28;20033;-61
2022/06/25 07:38:06;;;;;;;1.05;1.05;;;;;;;;;;4987564;28;20054;-61
2022/06/25 07:40:31;;;;;;;1.38;1.38;;;;;;;;;;4985882;28;20114;-61
2022/06/25 07:42:56;;;;;;;1.25;1.25;;;;;;;;;;4986500;28;20157;-61
2022/06/25 07:45:22;;;;;;;1.27;1.27;;;;;;;;;;4985745;28;20056;-61
2022/06/25 07:47:47;;;;;;;1.15;1.15;;;;;;;;;;4990173;28;20026;-62
2022/06/25 07:52:56;;;;;;;1.23;1.23;;;;;;;;;;4984714;28;20064;-62
2022/06/25 07:55:21;;;;;;;1.10;1.10;;;;;;;;;;4988057;28;20027;-61
2022/06/25 07:57:46;;;;;;;1.13;1.02;;;;;;;;;;4988954;28;20533;-61
2022/06/25 08:00:12;;;;;;;1.05;1.05;;;;;;;;;;4991217;28;20022;-60
2022/06/25 08:02:38;;;;;;;1.25;1.25;;;;;;;;;;4970666;28;20493;-60
2022/06/25 08:05:03;;;;;;;1.65;1.35;;;;;;;;;;4984956;28;20395;-60
2022/06/25 08:07:28;;;;;;;1.10;1.10;;;;;;;;;;4987374;28;20376;-61
2022/06/25 08:09:53;;;;;;;1.30;1.20;;;;;;;;;;4989637;28;20034;-60
2022/06/25 08:12:19;;;;;;;2.00;1.85;;;;;;;;;;4987216;28;20483;-62
2022/06/25 08:14:44;;;;;;;1.05;1.05;;;;;;;;;;4986844;28;20502;-62
2022/06/25 08:17:09;;;;;;;1.23;1.23;;;;;;;;;;4989701;28;20469;-61
2022/06/25 08:19:35;;;;;;;1.08;1.08;;;;;;;;;;4990463;28;20542;-62
2022/06/25 08:22:00;;;;;;;0.82;0.82;;;;;;;;;;4986884;28;20475;-60
2022/06/25 08:24:25;;;;;;;1.20;1.20;;;;;;;;;;4986915;28;20061;-61
2022/06/25 08:26:51;;;;;;;1.40;1.40;;;;;;;;;;4990099;28;20029;-61
2022/06/25 08:29:16;;;;;;;1.23;1.23;;;;;;;;;;4989630;28;20033;-60
2022/06/25 08:31:41;;;;;;;1.33;1.25;;;;;;;;;;4987367;28;20073;-61
2022/06/25 08:34:06;;;;;;;1.48;1.10;;;;;;;;;;4988819;28;20030;-61
2022/06/25 08:36:32;;;;;;;1.23;1.15;;;;;;;;;;4987987;28;20038;-61
2022/06/25 08:38:57;;;;;;;1.00;1.00;;;;;;;;;;4989182;28;20033;-61
2022/06/25 08:41:22;;;;;;;1.13;1.13;;;;;;;;;;4986315;28;20464;-61
2022/06/25 08:43:47;;;;;;;1.33;1.30;;;;;;;;;;4990115;28;20081;-61
2022/06/25 08:46:14;;;;;;;1.10;1.10;;;;;;;;;;4988274;28;20042;-63
2022/06/25 08:48:40;;;;;;;1.50;1.50;;;;;;;;;;4988372;28;20033;-61
2022/06/25 08:51:08;;;;;;;1.00;1.00;;;;;;;;;;4986451;28;20424;-61
2022/06/25 08:53:33;;;;;;;1.13;1.13;;;;;;;;;;4984745;28;20125;-61
2022/06/25 08:55:59;;;;;;;1.50;1.40;;;;;;;;;;4987308;28;20053;-62
2022/06/25 08:58:24;;;;;;;1.25;1.25;;;;;;;;;;4987174;28;20451;-61
2022/06/25 09:00:50;;;;;;;1.17;1.17;;;;;;;;;;4969389;28;20073;-61
2022/06/25 09:03:15;;;;;;;1.10;1.10;;;;;;;;;;4987202;28;20033;-61
2022/06/25 09:05:42;;;;;;;1.38;1.38;;;;;;;;;;4992901;28;20026;-61
2022/06/25 09:08:09;;;;;;;0.98;0.98;;;;;;;;;;4989780;28;20569;-61
2022/06/25 09:10:35;;;;;;;1.10;1.10;;;;;;;;;;4990539;28;20034;-61
2022/06/25 09:13:01;;;;;;;1.45;1.45;;;;;;;;;;4989493;28;20033;-61
2022/06/25 09:15:31;;;;;;;1.15;1.15;;;;;;;;;;4990326;28;20452;-63
2022/06/25 09:17:57;;;;;;;1.52;1.40;;;;;;;;;;4989357;28;20520;-61
2022/06/25 09:20:22;;;;;;;1.80;1.70;;;;;;;;;;4997385;28;20133;-61
2022/06/25 09:23:17;;;;;;;3.05;1.98;;;;;;;;;;4994612;28;20083;-62
2022/06/25 09:25:42;;;;;;;1.80;1.70;;;;;;;;;;4968283;28;20058;-62
2022/06/25 09:28:07;;;;;;;1.35;1.30;;;;;;;;;;4989530;28;20511;-62
2022/06/25 09:30:32;;;;;;;1.35;1.35;;;;;;;;;;4991728;28;20519;-61
2022/06/25 09:33:02;;;;;;;1.15;1.15;;;;;;;;;;4992550;28;20523;-62
2022/06/25 09:35:35;;;;;;;1.13;1.13;;;;;;;;;;4990572;28;20651;-61
2022/06/25 09:38:10;;;;;;;1.65;1.55;;;;;;;;;;4992711;28;20135;-62
2022/06/25 09:40:37;;;;;;;1.20;1.20;;;;;;;;;;4992186;28;20034;-62
2022/06/25 09:43:22;;;;;;;2.90;1.20;;;;;;;;;;4992309;28;20494;-61
2022/06/25 09:45:48;;;;;;;1.20;1.20;;;;;;;;;;4988458;28;20450;-61
2022/06/25 09:48:17;;;;;;;1.65;1.20;;;;;;;;;;4988862;28;20452;-61
2022/06/25 09:50:43;;;;;;;1.42;1.33;;;;;;;;;;4988115;28;20023;-61
2022/06/25 09:53:08;;;;;;;1.20;1.20;;;;;;;;;;4990250;28;20438;-62
2022/06/25 09:55:34;;;;;;;2.00;1.10;;;;;;;;;;4987536;28;20022;-61
2022/06/25 09:58:00;;;;;;;2.35;1.10;;;;;;;;;;4988705;28;20137;-62
2022/06/25 10:00:26;;;;;;;1.17;1.17;;;;;;;;;;4991442;28;20109;-62
2022/06/25 10:02:52;;;;;;;1.85;1.30;;;;;;;;;;4990927;28;20030;-63
2022/06/25 10:05:18;;;;;;;1.02;1.02;;;;;;;;;;4965536;28;20050;-63
2022/06/25 10:10:30;;;;;;;1.52;1.13;;;;;;;;;;4994404;28;20037;-63
2022/06/25 10:12:55;;;;;;;1.42;1.20;;;;;;;;;;4990757;28;20073;-62
2022/06/25 10:15:23;;;;;;;3.15;1.40;;;;;;;;;;4989944;28;20034;-61
2022/06/25 10:17:49;;;;;;;1.40;1.40;;;;;;;;;;4990036;28;20022;-60
2022/06/25 10:20:15;;;;;;;1.00;1.00;;;;;;;;;;4989205;28;20590;-62
2022/06/25 10:22:40;;;;;;;1.35;1.33;;;;;;;;;;4981997;28;20120;-62
2022/06/25 10:25:10;;;;;;;1.50;1.40;;;;;;;;;;4989187;28;20357;-62
2022/06/25 10:27:42;;;;;;;1.58;1.48;;;;;;;;;;4991103;28;20037;-62
2022/06/25 10:30:08;;;;;;;1.88;1.80;;;;;;;;;;4992026;28;20180;-61
2022/06/25 10:32:41;;;;;;;1.50;1.20;;;;;;;;;;4988732;28;20145;-63
2022/06/25 10:35:06;;;;;;;3.08;1.50;;;;;;;;;;4990897;28;20033;-63
2022/06/25 10:37:58;;;;;;;1.58;1.48;;;;;;;;;;4993031;28;20114;-61
2022/06/25 10:40:23;;;;;;;2.70;1.30;;;;;;;;;;4994252;28;20484;-63
2022/06/25 10:43:00;;;;;;;1.60;1.45;;;;;;;;;;4988953;28;20035;-63
2022/06/25 10:45:26;;;;;;;1.85;1.55;;;;;;;;;;4986937;28;20023;-65
2022/06/25 10:47:58;;;;;;;1.40;1.30;;;;;;;;;;4987429;28;20439;-66
2022/06/25 10:50:24;;;;;;;1.38;1.30;;;;;;;;;;4990500;28;20474;-66
2022/06/25 10:53:02;;;;;;;1.52;1.52;;;;;;;;;;4987378;28;20038;-66
2022/06/25 10:55:54;;;;;;;1.60;1.60;;;;;;;;;;4992151;28;20734;-67
2022/06/25 10:58:23;;;;;;;1.30;1.30;;;;;;;;;;4986655;28;20484;-66
2022/06/25 11:00:50;;;;;;;1.50;1.40;;;;;;;;;;4986824;28;20145;-61
2022/06/25 11:03:17;;;;;;;1.40;1.40;;;;;;;;;;4989851;28;20025;-67
2022/06/25 11:05:43;;;;;;;1.67;1.67;;;;;;;;;;4989568;28;20540;-67
2022/06/25 11:08:09;;;;;;;1.50;1.50;;;;;;;;;;4987710;28;20481;-67
2022/06/25 11:10:35;;;;;;;1.30;1.30;;;;;;;;;;4987049;28;20042;-67
2022/06/25 11:13:00;;;;;;;1.30;1.13;;;;;;;;;;4985486;28;20080;-67
2022/06/25 11:15:25;;;;;;;1.42;1.42;;;;;;;;;;4990782;28;20030;-70
2022/06/25 11:17:51;;;;;;;1.33;1.20;;;;;;;;;;4987775;28;20033;-66
2022/06/25 11:20:17;;;;;;;1.20;1.20;;;;;;;;;;4987807;28;20519;-67
2022/06/25 11:22:46;;;;;;;1.30;1.30;;;;;;;;;;4989450;28;20034;-67
2022/06/25 11:30:39;;;;;;;2.05;1.45;;;;;;;;;;4988200;28;20072;-67
2022/06/25 11:33:07;;;;;;;1.52;1.25;;;;;;;;;;4990330;28;20031;-66
2022/06/25 11:35:44;;;;;;;1.40;1.23;;;;;;;;;;4982662;28;20119;-66
2022/06/25 11:38:12;;;;;;;1.33;1.30;;;;;;;;;;4984537;28;20392;-67
2022/06/25 11:40:38;;;;;;;1.20;1.20;;;;;;;;;;4979157;28;20299;-67
2022/06/25 11:43:06;;;;;;;1.23;1.23;;;;;;;;;;4980092;28;20034;-68
2022/06/25 11:45:32;;;;;;;1.10;1.10;;;;;;;;;;4988877;28;20046;-67
2022/06/25 11:47:57;;;;;;;1.50;1.40;;;;;;;;;;4986287;28;20528;-66
2022/06/25 11:50:22;;;;;;;1.50;1.40;;;;;;;;;;4980093;28;20422;-68
2022/06/25 11:52:48;;;;;;;1.48;1.20;;;;;;;;;;4989930;28;20033;-66
2022/06/25 11:55:13;;;;;;;1.38;1.38;;;;;;;;;;4988293;28;20026;-68
2022/06/25 11:57:39;;;;;;;1.20;1.20;;;;;;;;;;4987511;28;20053;-68
2022/06/25 12:00:07;;;;;;;1.58;1.48;;;;;;;;;;4989283;28;20018;-68
2022/06/25 12:02:32;;;;;;;1.30;1.30;;;;;;;;;;4989898;28;20026;-68
2022/06/25 12:04:59;;;;;;;1.38;1.30;;;;;;;;;;4986152;28;20029;-66
2022/06/25 12:07:28;;;;;;;1.52;1.42;;;;;;;;;;4988061;28;20080;-68
2022/06/25 12:09:57;;;;;;;1.45;1.20;;;;;;;;;;4990467;28;20658;-69
2022/06/25 12:12:23;;;;;;;1.25;1.25;;;;;;;;;;4988887;28;20046;-69
2022/06/25 12:14:49;;;;;;;1.60;1.23;;;;;;;;;;4989368;28;20112;-69
2022/06/25 12:17:15;;;;;;;1.50;1.40;;;;;;;;;;4989125;28;20027;-69
2022/06/25 12:19:50;;;;;;;1.55;1.50;;;;;;;;;;4989497;28;20037;-69
2022/06/25 12:22:23;;;;;;;1.30;1.30;;;;;;;;;;4988092;28;20033;-69
2022/06/25 12:24:49;;;;;;;1.30;1.30;;;;;;;;;;4987121;28;20026;-70
2022/06/25 12:27:14;;;;;;;1.75;1.65;;;;;;;;;;4987394;28;20340;-68
2022/06/25 12:29:40;;;;;;;1.60;1.50;;;;;;;;;;4972920;28;20045;-64
2022/06/25 12:32:05;;;;;;;1.38;1.38;;;;;;;;;;4990219;28;20034;-65
2022/06/25 12:34:30;;;;;;;1.45;1.35;;;;;;;;;;4986127;28;20054;-65
2022/06/25 12:36:56;;;;;;;1.30;1.23;;;;;;;;;;4987584;28;20364;-67
2022/06/25 12:39:36;;;;;;;1.42;1.20;;;;;;;;;;4988592;28;20034;-65
2022/06/25 12:42:06;;;;;;;1.70;1.63;;;;;;;;;;4993601;28;20033;-66
2022/06/25 12:44:36;;;;;;;1.85;1.30;;;;;;;;;;4990766;28;20032;-65
2022/06/25 12:47:03;;;;;;;1.50;1.42;;;;;;;;;;4990430;28;20100;-66
2022/06/25 12:49:40;;;;;;;1.00;1.00;;;;;;;;;;4991918;28;20068;-65
2022/06/25 12:52:06;;;;;;;1.20;1.20;;;;;;;;;;4991453;28;20042;-66
2022/06/25 12:54:57;;;;;;;1.20;1.20;;;;;;;;;;4990064;28;20112;-66
2022/06/25 12:57:22;;;;;;;1.15;1.15;;;;;;;;;;4986824;28;20422;-65
2022/06/25 12:59:48;;;;;;;2.58;1.33;;;;;;;;;;4994498;28;20452;-65
2022/06/25 13:02:14;;;;;;;1.20;1.10;;;;;;;;;;4990584;28;20058;-65
2022/06/25 13:04:40;;;;;;;1.30;1.20;;;;;;;;;;4990554;28;20080;-66
2022/06/25 13:07:06;;;;;;;1.17;1.17;;;;;;;;;;4988564;28;20452;-66
2022/06/25 13:09:31;;;;;;;1.23;1.10;;;;;;;;;;4964466;28;20057;-66
2022/06/25 13:11:57;;;;;;;1.45;1.35;;;;;;;;;;4967027;28;20046;-61
2022/06/25 13:14:22;;;;;;;1.35;1.35;;;;;;;;;;4969897;28;20491;-69
2022/06/25 13:16:48;;;;;;;1.40;1.40;;;;;;;;;;4974276;28;20121;-67
2022/06/25 13:19:13;;;;;;;1.30;1.30;;;;;;;;;;4975428;28;20077;-68
2022/06/25 13:21:38;;;;;;;1.30;1.30;;;;;;;;;;4969058;28;20055;-66
2022/06/25 13:24:03;;;;;;;1.30;1.30;;;;;;;;;;4970570;28;20548;-68
2022/06/25 13:26:29;;;;;;;1.63;1.63;;;;;;;;;;4975423;28;20163;-68
2022/06/25 13:28:54;;;;;;;1.73;1.73;;;;;;;;;;4973761;28;20476;-67
2022/06/25 13:31:19;;;;;;;1.92;1.40;;;;;;;;;;4969738;28;20495;-68
2022/06/25 13:33:44;;;;;;;1.40;1.40;;;;;;;;;;4971320;28;20548;-66
2022/06/25 13:36:10;;;;;;;1.52;1.52;;;;;;;;;;4972920;28;20527;-66
2022/06/25 13:38:36;;;;;;;1.23;1.20;;;;;;;;;;4985283;28;20240;-67
2022/06/25 13:41:01;;;;;;;1.25;1.25;;;;;;;;;;4970036;28;20027;-68
2022/06/25 13:43:26;;;;;;;19.13;3.65;;;;;;;;;;4973633;28;20045;-68
2022/06/25 13:45:51;;;;;;;9.70;2.50;;;;;;;;;;4971908;28;20112;-68
2022/06/25 13:48:17;;;;;;;2.42;1.83;;;;;;;;;;4974078;28;20065;-68
2022/06/25 13:50:43;;;;;;;3.65;1.85;;;;;;;;;;4968661;28;20033;-68
2022/06/25 13:53:08;;;;;;;20.38;4.57;;;;;;;;;;4969726;28;20034;-67
2022/06/25 13:55:33;;;;;;;4.95;2.50;;;;;;;;;;4971971;28;20410;-67
2022/06/25 13:57:59;;;;;;;12.98;3.83;;;;;;;;;;4971860;28;20051;-67
2022/06/25 14:00:24;;;;;;;18.45;3.85;;;;;;;;;;4971128;28;20476;-67
2022/06/25 14:02:49;;;;;;;4.90;2.67;;;;;;;;;;4984903;28;20046;-68
2022/06/25 14:05:15;;;;;;;1.80;1.60;;;;;;;;;;4971723;28;20143;-67
2022/06/25 14:07:40;;;;;;;1.90;1.90;;;;;;;;;;4973868;28;20042;-67
2022/06/25 14:10:06;;;;;;;2.70;1.90;;;;;;;;;;4989001;28;20494;-67
2022/06/25 14:12:31;;;;;;;1.63;1.50;;;;;;;;;;4991303;28;20042;-68
2022/06/25 14:14:56;;;;;;;1.80;1.80;;;;;;;;;;4992163;28;20034;-67
2022/06/25 14:17:23;;;;;;;2.38;1.80;;;;;;;;;;4991964;28;20480;-61
2022/06/25 14:19:48;;;;;;;1.88;1.88;;;;;;;;;;4989735;28;20033;-66
2022/06/25 14:22:13;;;;;;;1.63;1.63;;;;;;;;;;4989570;28;20034;-66
2022/06/25 14:27:24;;;;;;;1.63;1.52;;;;;;;;;;4989154;28;20130;-66
2022/06/25 14:29:50;;;;;;;2.03;1.88;;;;;;;;;;4990074;28;20050;-66
2022/06/25 14:32:15;;;;;;;2.00;1.90;;;;;;;;;;4989084;28;20042;-67
2022/06/25 14:34:40;;;;;;;1.88;1.85;;;;;;;;;;4989100;28;20049;-66
2022/06/25 14:42:33;;;;;;;2.13;2.03;;;;;;;;;;4990809;28;20112;-67
2022/06/25 14:44:58;;;;;;;2.03;1.95;;;;;;;;;;4966946;28;20038;-67
2022/06/25 14:47:24;;;;;;;1.85;1.75;;;;;;;;;;4968918;28;20084;-65
2022/06/25 14:49:49;;;;;;;2.78;2.67;;;;;;;;;;4987500;28;20072;-67
2022/06/25 14:52:16;;;;;;;2.47;2.38;;;;;;;;;;4987389;28;20039;-67
2022/06/25 14:54:42;;;;;;;2.45;1.60;;;;;;;;;;4987878;28;20022;-67
2022/06/25 14:57:07;;;;;;;1.50;1.40;;;;;;;;;;4988969;28;20029;-64
2022/06/25 14:59:32;;;;;;;2.13;2.03;;;;;;;;;;4987881;28;20022;-69
2022/06/25 15:01:57;;;;;;;1.70;1.60;;;;;;;;;;4988390;28;20022;-67
2022/06/25 15:04:23;;;;;;;1.98;1.88;;;;;;;;;;4989629;28;20478;-67
2022/06/25 15:06:48;;;;;;;1.85;1.75;;;;;;;;;;4985762;28;20472;-68